createdAt,value
2022-10-13T00:01:23.819Z,9.74
2022-10-13T00:03:55.663Z,9.75
2022-10-13T00:06:28.447Z,9.76
2022-10-13T00:09:00.177Z,9.79
2022-10-13T00:11:32.519Z,9.79
2022-10-13T00:14:04.928Z,9.79
2022-10-13T00:16:38.444Z,9.80
2022-10-13T00:19:14.850Z,9.79
2022-10-13T00:21:44.326Z,9.82
2022-10-13T00:24:16.337Z,9.83
2022-10-13T00:26:49.774Z,9.82
2022-10-13T00:29:23.395Z,9.80
2022-10-13T00:31:56.097Z,9.77
2022-10-13T00:34:28.407Z,9.77
2022-10-13T00:37:00.647Z,9.77
2022-10-13T00:39:33.217Z,9.76
2022-10-13T00:42:07.181Z,9.76
2022-10-13T00:45:01.832Z,9.76
2022-10-13T00:47:39.537Z,9.76
2022-10-13T00:50:21.015Z,9.77
2022-10-13T00:52:55.491Z,9.78
2022-10-13T00:55:31.439Z,9.79
2022-10-13T00:58:05.528Z,9.77
2022-10-13T01:00:37.561Z,9.77
2022-10-13T01:03:09.794Z,9.78
2022-10-13T01:05:42.592Z,9.75
2022-10-13T01:08:15.237Z,9.71
2022-10-13T01:11:08.571Z,9.69
2022-10-13T01:14:13.774Z,9.68
2022-10-13T01:17:12.811Z,9.66
2022-10-13T01:19:48.324Z,9.64
2022-10-13T01:22:38.191Z,9.65
2022-10-13T01:25:36.114Z,9.66
2022-10-13T01:28:26.327Z,9.66
2022-10-13T01:31:06.965Z,9.70
2022-10-13T01:33:49.182Z,9.71
2022-10-13T01:36:45.522Z,9.70
2022-10-13T01:39:26.031Z,9.63
2022-10-13T01:42:00.385Z,9.55
2022-10-13T01:44:38.120Z,9.48
2022-10-13T01:47:11.133Z,9.42
2022-10-13T01:49:43.648Z,9.39
2022-10-13T01:52:19.329Z,9.37
2022-10-13T01:54:55.098Z,9.35
2022-10-13T01:57:35.550Z,9.34
2022-10-13T02:00:12.411Z,9.32
2022-10-13T02:03:03.069Z,9.34
2022-10-13T02:05:59.390Z,9.38
2022-10-13T02:08:53.860Z,9.41
2022-10-13T02:11:25.802Z,9.47
2022-10-13T02:14:09.565Z,9.52
2022-10-13T02:16:44.393Z,9.54
2022-10-13T02:19:17.925Z,9.56
2022-10-13T02:21:49.963Z,9.58
2022-10-13T02:24:22.887Z,9.58
2022-10-13T02:26:55.811Z,9.56
2022-10-13T02:29:29.042Z,9.52
2022-10-13T02:32:01.240Z,9.50
2022-10-13T02:34:33.422Z,9.46
2022-10-13T02:37:07.494Z,9.47
2022-10-13T02:39:39.705Z,9.48
2022-10-13T02:42:13.194Z,9.48
2022-10-13T02:44:44.843Z,9.49
2022-10-13T02:47:17.521Z,9.51
2022-10-13T02:49:49.500Z,9.52
2022-10-13T02:52:21.973Z,9.54
2022-10-13T02:54:54.088Z,9.59
2022-10-13T02:57:26.783Z,9.60
2022-10-13T02:59:58.589Z,9.59
2022-10-13T03:02:32.431Z,9.61
2022-10-13T03:05:04.979Z,9.61
2022-10-13T03:07:37.109Z,9.62
2022-10-13T03:10:10.105Z,9.63
2022-10-13T03:12:42.300Z,9.62
2022-10-13T03:15:14.885Z,9.57
2022-10-13T03:17:47.698Z,9.52
2022-10-13T03:20:19.659Z,9.48
2022-10-13T03:22:51.788Z,9.42
2022-10-13T03:25:24.288Z,9.37
2022-10-13T03:27:57.460Z,9.37
2022-10-13T03:30:29.657Z,9.39
2022-10-13T03:33:01.449Z,9.45
2022-10-13T03:35:34.444Z,9.43
2022-10-13T03:38:06.217Z,9.45
2022-10-13T03:40:38.271Z,9.51
2022-10-13T03:43:10.634Z,9.54
2022-10-13T03:45:42.852Z,9.57
2022-10-13T03:48:14.766Z,9.59
2022-10-13T03:50:46.905Z,9.58
2022-10-13T03:53:18.689Z,9.54
2022-10-13T03:55:54.829Z,9.51
2022-10-13T03:58:28.458Z,9.46
2022-10-13T04:01:07.458Z,9.45
2022-10-13T04:03:39.779Z,9.42
2022-10-13T04:06:11.613Z,9.40
2022-10-13T04:08:44.024Z,9.38
2022-10-13T04:11:16.844Z,9.35
2022-10-13T04:13:50.210Z,9.34
2022-10-13T04:16:26.559Z,9.41
2022-10-13T04:19:03.688Z,9.45
2022-10-13T04:21:36.810Z,9.46
2022-10-13T04:24:10.513Z,9.48
2022-10-13T04:26:42.360Z,9.48
2022-10-13T04:29:15.110Z,9.48
2022-10-13T04:31:47.168Z,9.48
2022-10-13T04:34:20.707Z,9.52
2022-10-13T04:36:53.132Z,9.59
2022-10-13T04:39:25.935Z,9.74
2022-10-13T04:41:59.564Z,9.81
2022-10-13T04:44:31.460Z,9.82
2022-10-13T04:47:03.475Z,9.82
2022-10-13T04:49:35.973Z,9.77
2022-10-13T04:52:08.094Z,9.72
2022-10-13T04:54:42.391Z,9.69
2022-10-13T04:57:14.408Z,9.68
2022-10-13T04:59:46.669Z,9.68
2022-10-13T05:02:18.965Z,9.68
2022-10-13T05:04:50.983Z,9.67
2022-10-13T05:07:24.542Z,9.70
2022-10-13T05:09:56.949Z,9.74
2022-10-13T05:12:29.226Z,9.75
2022-10-13T05:15:01.614Z,9.77
2022-10-13T05:17:35.545Z,9.77
2022-10-13T05:20:10.970Z,9.76
2022-10-13T05:22:43.485Z,9.76
2022-10-13T05:25:15.217Z,9.76
2022-10-13T05:27:49.738Z,9.75
2022-10-13T05:30:21.651Z,9.80
2022-10-13T05:32:54.254Z,9.82
2022-10-13T05:35:27.113Z,9.85
2022-10-13T05:37:59.020Z,9.91
2022-10-13T05:40:31.808Z,9.93
2022-10-13T05:43:04.944Z,9.95
2022-10-13T05:45:38.019Z,9.96
2022-10-13T05:48:10.116Z,9.98
2022-10-13T05:50:42.254Z,10.00
2022-10-13T05:53:14.010Z,10.04
2022-10-13T05:55:46.045Z,10.08
2022-10-13T05:58:18.946Z,10.14
2022-10-13T06:00:51.223Z,10.20
2022-10-13T06:03:23.555Z,10.24
2022-10-13T06:05:55.311Z,10.27
2022-10-13T06:08:28.043Z,10.29
2022-10-13T06:11:00.054Z,10.33
2022-10-13T06:13:31.891Z,10.36
2022-10-13T06:16:04.971Z,10.39
2022-10-13T06:18:37.860Z,10.42
2022-10-13T06:21:09.910Z,10.44
2022-10-13T06:23:42.083Z,10.47
2022-10-13T06:26:14.425Z,10.52
2022-10-13T06:28:50.563Z,10.54
2022-10-13T06:31:22.310Z,10.55
2022-10-13T06:33:55.843Z,10.59
2022-10-13T06:36:27.968Z,10.65
2022-10-13T06:39:01.533Z,10.67
2022-10-13T06:41:33.961Z,10.75
2022-10-13T06:44:06.028Z,10.79
2022-10-13T06:46:38.571Z,10.82
2022-10-13T06:49:11.542Z,10.84
2022-10-13T06:51:43.292Z,10.87
2022-10-13T06:54:17.508Z,10.92
2022-10-13T06:56:49.840Z,10.96
2022-10-13T06:59:21.493Z,11.00
2022-10-13T07:01:54.724Z,11.03
2022-10-13T07:04:28.453Z,11.05
2022-10-13T07:07:03.051Z,11.08
2022-10-13T07:09:36.157Z,11.13
2022-10-13T07:12:09.051Z,11.17
2022-10-13T07:14:43.970Z,11.21
2022-10-13T07:17:15.886Z,11.27
2022-10-13T07:19:50.477Z,11.36
2022-10-13T07:22:22.491Z,11.42
2022-10-13T07:24:54.286Z,11.52
2022-10-13T07:27:26.746Z,11.63
2022-10-13T07:29:58.979Z,11.78
2022-10-13T07:32:30.776Z,11.89
2022-10-13T07:35:04.299Z,12.00
2022-10-13T07:37:37.157Z,12.12
2022-10-13T07:40:09.732Z,12.19
2022-10-13T07:42:42.619Z,12.21
2022-10-13T07:45:14.379Z,12.24
2022-10-13T07:47:46.534Z,12.31
2022-10-13T07:50:18.355Z,12.37
2022-10-13T07:52:50.109Z,12.40
2022-10-13T07:55:22.398Z,12.44
2022-10-13T07:57:56.450Z,12.44
2022-10-13T08:00:28.799Z,12.49
2022-10-13T08:03:00.855Z,12.50
2022-10-13T08:05:34.231Z,12.51
2022-10-13T08:08:07.167Z,12.54
2022-10-13T08:10:40.220Z,12.59
2022-10-13T08:13:12.823Z,12.62
2022-10-13T08:15:45.080Z,12.65
2022-10-13T08:18:17.259Z,12.66
2022-10-13T08:20:55.561Z,12.69
2022-10-13T08:23:42.053Z,12.71
2022-10-13T08:26:17.876Z,12.75
2022-10-13T08:29:09.642Z,12.78
2022-10-13T08:31:23.468Z,12.83
2022-10-13T08:33:56.554Z,12.90
2022-10-13T08:36:29.074Z,12.95
2022-10-13T08:39:00.946Z,12.99
2022-10-13T08:41:41.466Z,13.07
2022-10-13T08:47:12.376Z,13.20
2022-10-13T08:49:45.725Z,13.23
2022-10-13T08:52:26.295Z,13.24
2022-10-13T08:54:59.174Z,13.24
2022-10-13T08:57:31.211Z,13.27
2022-10-13T09:00:03.265Z,13.32
2022-10-13T09:02:35.906Z,13.32
2022-10-13T09:05:12.456Z,13.33
2022-10-13T09:07:44.811Z,13.35
2022-10-13T09:10:18.269Z,13.37
2022-10-13T09:12:51.659Z,13.41
2022-10-13T09:15:24.453Z,13.43
2022-10-13T09:18:13.103Z,13.45
2022-10-13T09:20:45.467Z,13.48
2022-10-13T09:23:20.104Z,13.44
2022-10-13T09:25:52.868Z,13.40
2022-10-13T09:28:30.010Z,13.45
2022-10-13T09:31:11.693Z,13.51
2022-10-13T09:33:41.485Z,13.59
2022-10-13T09:36:17.521Z,13.63
2022-10-13T09:39:11.730Z,13.66
2022-10-13T09:41:44.294Z,13.63
2022-10-13T09:44:18.881Z,13.60
2022-10-13T09:46:56.032Z,13.61
2022-10-13T09:49:42.041Z,13.62
2022-10-13T09:52:16.271Z,13.61
2022-10-13T09:54:52.701Z,13.60
2022-10-13T09:57:42.810Z,13.62
2022-10-13T10:00:19.293Z,13.64
2022-10-13T10:03:13.147Z,13.66
2022-10-13T10:05:53.285Z,13.66
2022-10-13T10:09:02.099Z,13.65
2022-10-13T10:11:22.868Z,13.57
2022-10-13T10:13:56.047Z,13.56
2022-10-13T10:16:35.011Z,13.56
2022-10-13T10:19:25.506Z,13.59
2022-10-13T10:22:19.351Z,13.64
2022-10-13T10:24:54.861Z,13.67
2022-10-13T10:27:45.625Z,13.67
2022-10-13T10:30:21.153Z,13.70
2022-10-13T10:33:22.873Z,13.73
2022-10-13T10:35:57.677Z,13.74
2022-10-13T10:38:32.571Z,13.77
2022-10-13T10:41:11.330Z,13.80
2022-10-13T10:43:55.326Z,13.79
2022-10-13T10:46:32.157Z,13.79
2022-10-13T10:49:07.882Z,13.78
2022-10-13T10:51:39.695Z,13.77
2022-10-13T10:54:18.694Z,13.77
2022-10-13T10:56:56.761Z,13.78
2022-10-13T10:59:34.625Z,13.80
2022-10-13T11:02:12.992Z,13.80
2022-10-13T11:04:46.440Z,13.81
2022-10-13T11:07:32.199Z,13.83
2022-10-13T11:10:06.713Z,13.83
2022-10-13T11:12:57.934Z,13.84
2022-10-13T11:15:46.934Z,13.87
2022-10-13T11:18:58.339Z,13.89
2022-10-13T11:21:55.249Z,13.91
2022-10-13T11:24:39.540Z,13.95
2022-10-13T11:27:20.611Z,14.00
2022-10-13T11:29:57.936Z,14.05
2022-10-13T11:32:37.203Z,14.10
2022-10-13T11:35:12.778Z,14.14
2022-10-13T11:38:09.285Z,14.18
2022-10-13T11:40:59.865Z,14.19
2022-10-13T11:43:49.175Z,14.21
2022-10-13T11:46:57.185Z,14.23
2022-10-13T11:49:50.405Z,14.25
2022-10-13T11:52:43.354Z,14.31
2022-10-13T11:55:24.257Z,14.32
2022-10-13T11:58:10.312Z,14.32
2022-10-13T12:01:03.209Z,14.33
2022-10-13T12:03:43.552Z,14.30
2022-10-13T12:06:36.912Z,14.27
2022-10-13T12:09:19.856Z,14.25
2022-10-13T12:12:03.403Z,14.24
2022-10-13T12:14:45.567Z,14.25
2022-10-13T12:17:29.243Z,14.31
2022-10-13T12:20:03.340Z,14.34
2022-10-13T12:22:40.058Z,14.37
2022-10-13T12:25:11.071Z,14.40
2022-10-13T12:27:49.586Z,14.43
2022-10-13T12:30:42.488Z,14.47
2022-10-13T12:33:33.215Z,14.52
2022-10-13T12:36:16.088Z,14.51
2022-10-13T12:38:53.156Z,14.53
2022-10-13T12:41:35.018Z,14.61
2022-10-13T12:44:08.505Z,14.70
2022-10-13T12:46:49.128Z,14.74
2022-10-13T12:49:32.352Z,14.79
2022-10-13T12:52:14.446Z,14.81
2022-10-13T12:54:56.512Z,14.85
2022-10-13T12:57:38.908Z,14.84
2022-10-13T13:00:24.097Z,14.78
2022-10-13T13:02:57.270Z,14.73
2022-10-13T13:05:40.768Z,14.70
2022-10-13T13:08:33.133Z,14.68
2022-10-13T13:11:08.528Z,14.61
2022-10-13T13:13:40.743Z,14.57
2022-10-13T13:16:16.195Z,14.47
2022-10-13T13:18:51.330Z,14.36
2022-10-13T13:21:23.564Z,14.24
2022-10-13T13:23:55.493Z,14.15
2022-10-13T13:26:28.209Z,14.06
2022-10-13T13:29:00.622Z,14.02
2022-10-13T13:31:32.860Z,14.00
2022-10-13T13:34:06.486Z,13.96
2022-10-13T13:36:38.969Z,13.92
2022-10-13T13:39:18.299Z,13.87
2022-10-13T13:41:50.988Z,13.84
2022-10-13T13:44:22.752Z,13.84
2022-10-13T13:46:55.890Z,13.81
2022-10-13T13:49:28.032Z,13.79
2022-10-13T13:51:59.932Z,13.76
2022-10-13T13:54:32.066Z,13.74
2022-10-13T13:57:04.524Z,13.68
2022-10-13T13:59:37.295Z,13.61
2022-10-13T14:02:17.918Z,13.57
2022-10-13T14:04:50.200Z,13.55
2022-10-13T14:07:24.413Z,13.52
2022-10-13T14:10:00.967Z,13.52
2022-10-13T14:12:32.010Z,13.48
2022-10-13T14:15:05.116Z,13.43
2022-10-13T14:17:37.485Z,13.37
2022-10-13T14:20:11.280Z,13.32
2022-10-13T14:22:44.846Z,13.30
2022-10-13T14:25:17.880Z,13.32
2022-10-13T14:27:50.223Z,13.31
2022-10-13T14:30:22.541Z,13.31
2022-10-13T14:32:54.931Z,13.30
2022-10-13T14:35:28.486Z,13.27
2022-10-13T14:38:00.299Z,13.23
2022-10-13T14:40:32.369Z,13.14
2022-10-13T14:43:04.319Z,13.09
2022-10-13T14:45:36.965Z,13.05
2022-10-13T14:48:11.636Z,13.00
2022-10-13T14:50:43.990Z,12.97
2022-10-13T14:53:16.038Z,12.93
2022-10-13T14:55:48.706Z,12.88
2022-10-13T14:58:20.915Z,12.81
2022-10-13T15:00:55.637Z,12.76
2022-10-13T15:03:27.909Z,12.71
2022-10-13T15:06:01.213Z,12.67
2022-10-13T15:08:34.557Z,12.63
2022-10-13T15:11:06.540Z,12.62
2022-10-13T15:13:39.920Z,12.57
2022-10-13T15:16:17.115Z,12.53
2022-10-13T15:18:50.431Z,12.50
2022-10-13T15:21:22.566Z,12.47
2022-10-13T15:23:55.966Z,12.42
2022-10-13T15:26:29.137Z,12.38
2022-10-13T15:29:01.440Z,12.31
2022-10-13T15:31:34.006Z,12.27
2022-10-13T15:34:06.774Z,12.24
2022-10-13T15:36:39.931Z,12.21
2022-10-13T15:39:12.237Z,12.16
2022-10-13T15:41:45.774Z,12.12
2022-10-13T15:44:19.146Z,12.09
2022-10-13T15:47:07.491Z,12.07
2022-10-13T15:49:27.800Z,12.07
2022-10-13T15:51:59.927Z,12.07
2022-10-13T15:54:32.304Z,12.06
2022-10-13T15:57:04.277Z,12.05
2022-10-13T15:59:36.381Z,12.05
2022-10-13T16:02:08.309Z,12.03
2022-10-13T16:04:41.416Z,12.02
2022-10-13T16:07:13.662Z,12.00
2022-10-13T16:09:46.579Z,12.00
2022-10-13T16:12:19.342Z,12.00
2022-10-13T16:14:52.933Z,12.00
2022-10-13T16:17:25.683Z,12.01
2022-10-13T16:19:58.849Z,12.03
2022-10-13T16:22:30.965Z,12.05
2022-10-13T16:25:02.864Z,12.08
2022-10-13T16:27:35.360Z,12.09
2022-10-13T16:30:30.523Z,12.11
2022-10-13T16:33:02.522Z,12.13
2022-10-13T16:35:35.099Z,12.14
2022-10-13T16:38:07.175Z,12.15
2022-10-13T16:40:39.904Z,12.16
2022-10-13T16:43:11.641Z,12.18
2022-10-13T16:45:59.723Z,12.18
2022-10-13T16:48:19.990Z,12.20
2022-10-13T16:50:52.271Z,12.20
2022-10-13T16:53:26.250Z,12.20
2022-10-13T16:55:58.609Z,12.21
2022-10-13T16:58:30.299Z,12.22
2022-10-13T17:01:09.637Z,12.23
2022-10-13T17:03:44.028Z,12.25
2022-10-13T17:06:15.996Z,12.26
2022-10-13T17:08:49.558Z,12.25
2022-10-13T17:11:23.750Z,12.24
2022-10-13T17:13:57.944Z,12.25
2022-10-13T17:16:32.633Z,12.24
2022-10-13T17:19:06.790Z,12.24
2022-10-13T17:21:40.357Z,12.25
2022-10-13T17:24:13.647Z,12.27
2022-10-13T17:26:46.597Z,12.27
2022-10-13T17:29:18.472Z,12.25
2022-10-13T17:31:51.677Z,12.25
2022-10-13T17:34:25.353Z,12.24
2022-10-13T17:36:59.443Z,12.24
2022-10-13T17:39:33.672Z,12.25
2022-10-13T17:42:06.726Z,12.25
2022-10-13T17:44:38.852Z,12.25
2022-10-13T17:47:12.450Z,12.25
2022-10-13T17:49:44.846Z,12.24
2022-10-13T17:52:21.609Z,12.22
2022-10-13T17:54:53.544Z,12.17
2022-10-13T17:57:25.571Z,12.15
2022-10-13T17:59:58.200Z,12.13
2022-10-13T18:02:30.643Z,12.09
2022-10-13T18:05:03.302Z,12.04
2022-10-13T18:07:35.389Z,12.03
2022-10-13T18:10:11.028Z,12.02
2022-10-13T18:12:43.215Z,12.02
2022-10-13T18:15:17.432Z,12.03
2022-10-13T18:17:50.315Z,12.05
2022-10-13T18:20:24.664Z,12.07
2022-10-13T18:22:56.609Z,12.11
2022-10-13T18:25:29.458Z,12.13
2022-10-13T18:28:03.036Z,12.16
2022-10-13T18:30:37.813Z,12.19
2022-10-13T18:33:09.608Z,12.23
2022-10-13T18:35:44.583Z,12.25
2022-10-13T18:38:20.251Z,12.28
2022-10-13T18:40:54.819Z,12.26
2022-10-13T18:43:28.292Z,12.20
2022-10-13T18:46:01.073Z,12.14
2022-10-13T18:48:33.406Z,12.11
2022-10-13T18:51:06.591Z,12.09
2022-10-13T18:53:40.815Z,12.04
2022-10-13T18:56:17.659Z,11.97
2022-10-13T18:58:49.684Z,11.93
2022-10-13T19:01:22.692Z,11.86
2022-10-13T19:03:56.516Z,11.80
2022-10-13T19:06:32.358Z,11.77
2022-10-13T19:09:06.555Z,11.74
2022-10-13T19:11:41.336Z,11.74
2022-10-13T19:14:17.035Z,11.73
2022-10-13T19:16:49.018Z,11.69
2022-10-13T19:19:21.558Z,11.68
2022-10-13T19:21:55.855Z,11.69
2022-10-13T19:24:28.143Z,11.72
2022-10-13T19:26:59.973Z,11.71
2022-10-13T19:29:36.370Z,11.69
2022-10-13T19:32:21.022Z,11.66
2022-10-13T19:35:08.944Z,11.64
2022-10-13T19:37:40.923Z,11.61
2022-10-13T19:40:14.214Z,11.61
2022-10-13T19:42:47.488Z,11.63
2022-10-13T19:45:25.001Z,11.66
2022-10-13T19:47:58.785Z,11.66
2022-10-13T19:50:45.397Z,11.66
2022-10-13T19:53:18.002Z,11.68
2022-10-13T19:55:50.984Z,11.74
2022-10-13T19:58:22.842Z,11.78
2022-10-13T20:00:55.102Z,11.80
2022-10-13T20:03:30.038Z,11.84
2022-10-13T20:06:06.350Z,11.88
2022-10-13T20:08:43.008Z,11.90
2022-10-13T20:11:22.176Z,11.93
2022-10-13T20:13:50.910Z,11.92
2022-10-13T20:16:25.079Z,11.96
2022-10-13T20:19:02.160Z,11.99
2022-10-13T20:21:33.770Z,12.02
2022-10-13T20:24:08.136Z,12.02
2022-10-13T20:26:42.744Z,12.03
2022-10-13T20:29:14.765Z,12.03
2022-10-13T20:31:48.099Z,12.02
2022-10-13T20:34:20.546Z,12.04
2022-10-13T20:36:52.277Z,12.05
2022-10-13T20:39:30.721Z,12.08
2022-10-13T20:42:06.894Z,12.13
2022-10-13T20:44:39.005Z,12.13
2022-10-13T20:47:11.992Z,12.14
2022-10-13T20:49:44.580Z,12.15
2022-10-13T20:52:18.097Z,12.12
2022-10-13T20:54:54.601Z,12.08
2022-10-13T20:57:26.385Z,12.04
2022-10-13T20:59:59.708Z,12.03
2022-10-13T21:02:32.861Z,12.02
2022-10-13T21:05:05.157Z,11.98
2022-10-13T21:07:37.740Z,11.98
2022-10-13T21:10:10.703Z,12.00
2022-10-13T21:12:43.706Z,12.00
2022-10-13T21:15:15.629Z,12.02
2022-10-13T21:17:47.959Z,11.98
2022-10-13T21:20:21.007Z,11.95
2022-10-13T21:22:53.148Z,11.95
2022-10-13T21:25:25.002Z,11.95
2022-10-13T21:28:01.992Z,11.94
2022-10-13T21:30:33.916Z,11.91
2022-10-13T21:33:06.074Z,11.88
2022-10-13T21:35:38.198Z,11.88
2022-10-13T21:38:10.188Z,11.86
2022-10-13T21:40:42.842Z,11.84
2022-10-13T21:43:17.843Z,11.84
2022-10-13T21:45:49.853Z,11.84
2022-10-13T21:48:21.749Z,11.82
2022-10-13T21:50:57.188Z,11.82
2022-10-13T21:53:29.157Z,11.82
2022-10-13T21:56:09.246Z,11.86
2022-10-13T21:58:41.053Z,11.87
2022-10-13T22:01:13.886Z,11.91
2022-10-13T22:03:47.206Z,11.93
2022-10-13T22:06:21.280Z,11.94
2022-10-13T22:08:54.083Z,11.93
2022-10-13T22:11:30.299Z,11.95
2022-10-13T22:14:02.148Z,11.95
2022-10-13T22:16:39.746Z,11.92
2022-10-13T22:19:12.703Z,11.90
2022-10-13T22:21:48.194Z,11.90
2022-10-13T22:24:21.879Z,11.88
2022-10-13T22:26:54.180Z,11.88
2022-10-13T22:29:26.925Z,11.87
2022-10-13T22:34:43.344Z,11.85
2022-10-13T22:37:17.302Z,11.84
2022-10-13T22:39:49.489Z,11.83
2022-10-13T22:42:22.422Z,11.81
2022-10-13T22:44:54.201Z,11.78
2022-10-13T22:47:26.644Z,11.78
2022-10-13T22:49:58.618Z,11.79
2022-10-13T22:52:30.335Z,11.83
2022-10-13T22:55:01.988Z,11.84
2022-10-13T22:57:35.559Z,11.84
2022-10-13T23:00:19.599Z,11.84
2022-10-13T23:02:52.928Z,11.86
2022-10-13T23:05:24.758Z,11.82
2022-10-13T23:07:57.781Z,11.77
2022-10-13T23:10:31.642Z,11.68
2022-10-13T23:13:04.295Z,11.65
2022-10-13T23:15:37.818Z,11.62
2022-10-13T23:18:10.640Z,11.59
2022-10-13T23:20:42.682Z,11.57
2022-10-13T23:23:16.530Z,11.57
2022-10-13T23:25:48.622Z,11.59
2022-10-13T23:28:20.476Z,11.62
2022-10-13T23:30:52.530Z,11.64
2022-10-13T23:33:25.191Z,11.68
2022-10-13T23:35:57.839Z,11.68
2022-10-13T23:38:31.172Z,11.68
2022-10-13T23:41:09.332Z,11.71
2022-10-13T23:43:42.514Z,11.69
2022-10-13T23:46:15.485Z,11.68
2022-10-13T23:48:47.691Z,11.64
2022-10-13T23:51:21.067Z,11.63
2022-10-13T23:53:53.032Z,11.61
2022-10-13T23:56:25.007Z,11.58
2022-10-13T23:58:56.737Z,11.56
